Time;durP1;ratioP1;P1;durP2;ratioP2;P2;SDS_P1;SDS_P2;PMS_P1;PMS_P2;Temp;Humidity;BMP_temperature;BMP_pressure;BME280_temperature;BME280_humidity;BME280_pressure;Samples;Min_cycle;Max_cycle;Signal;HPM_P1;HPM_P2
2021/04/15 00:00:49;;;;;;;37.85;21.10;;;;;;;7.49;75.15;99056.34;3550766;27;20049;-51
2021/04/15 00:02:30;;;;;;;38.95;20.38;;;;;;;7.44;74.46;99049.41;3552553;27;20058;-44
2021/04/15 00:04:12;;;;;;;34.28;20.88;;;;;;;7.41;74.61;99051.09;3549148;27;20074;-51
2021/04/15 00:05:57;;;;;;;36.92;21.17;;;;;;;7.36;74.86;99050.13;3552543;27;20059;-45
2021/04/15 00:07:38;;;;;;;39.95;22.02;;;;;;;7.30;75.09;99045.75;3549080;27;20050;-44
2021/04/15 00:09:23;;;;;;;39.00;22.38;;;;;;;7.22;75.65;99048.19;3552579;27;20082;-51
2021/04/15 00:11:05;;;;;;;37.10;21.08;;;;;;;7.24;75.64;99054.22;3548236;27;20050;-45
2021/04/15 00:12:46;;;;;;;41.97;21.95;;;;;;;7.23;76.35;99039.63;3550241;27;20610;-44
2021/04/15 00:14:28;;;;;;;36.35;21.38;;;;;;;7.22;76.31;99044.75;3550408;27;20047;-44
2021/04/15 00:16:09;;;;;;;36.45;21.08;;;;;;;7.21;75.95;99046.47;3552653;27;20051;-44
2021/04/15 00:17:51;;;;;;;35.63;21.02;;;;;;;7.22;76.60;99053.34;3552303;27;20051;-45
2021/04/15 00:19:33;;;;;;;37.47;21.42;;;;;;;7.23;76.42;99049.06;3548814;27;20099;-44
2021/04/15 00:21:15;;;;;;;37.83;22.55;;;;;;;7.25;76.39;99042.22;3552576;27;20135;-45
2021/04/15 00:22:58;;;;;;;41.40;22.77;;;;;;;7.24;76.75;99038.75;3549324;27;20043;-51
2021/04/15 00:24:39;;;;;;;39.30;22.08;;;;;;;7.23;77.28;99042.19;3549957;27;20046;-52
2021/04/15 00:26:24;;;;;;;39.53;21.67;;;;;;;7.24;77.31;99040.47;3551648;27;20057;-45
2021/04/15 00:28:06;;;;;;;39.70;21.77;;;;;;;7.24;77.05;99037.91;3548952;27;20047;-50
2021/04/15 00:29:47;;;;;;;39.33;21.70;;;;;;;7.25;77.57;99042.22;3552102;27;20662;-50
2021/04/15 00:31:30;;;;;;;42.42;23.42;;;;;;;7.25;77.25;99040.50;3548475;27;20051;-50
2021/04/15 00:33:11;;;;;;;41.33;23.25;;;;;;;7.25;77.65;99037.06;3552032;27;20046;-52
2021/04/15 00:34:53;;;;;;;37.30;22.85;;;;;;;7.27;77.59;99040.53;3551605;27;20061;-51
2021/04/15 00:36:34;;;;;;;39.15;23.42;;;;;;;7.25;78.12;99037.91;3551673;27;20396;-49
2021/04/15 00:38:17;;;;;;;43.00;24.42;;;;;;;7.27;78.06;99040.53;3554340;27;20103;-45
2021/04/15 00:39:58;;;;;;;46.25;25.02;;;;;;;7.28;78.13;99043.97;3551032;27;20042;-44
2021/04/15 00:41:40;;;;;;;38.13;22.83;;;;;;;7.26;78.40;99037.09;3554488;27;20054;-50
2021/04/15 00:43:27;;;;;;;48.70;27.20;;;;;;;7.26;78.70;99041.34;3550694;27;20423;-49
2021/04/15 00:45:12;;;;;;;45.10;24.75;;;;;;;7.29;78.80;99043.16;3553706;27;20061;-50
2021/04/15 00:46:57;;;;;;;42.97;24.85;;;;;;;7.30;78.69;99035.44;3552240;27;20240;-51
2021/04/15 00:48:42;;;;;;;46.95;25.25;;;;;;;7.33;78.51;99040.63;3552067;27;20051;-50
2021/04/15 00:50:30;;;;;;;49.08;26.83;;;;;;;7.36;78.43;99039.81;3554034;27;20059;-49
2021/04/15 00:52:17;;;;;;;60.83;29.23;;;;;;;7.39;77.76;99039.88;3550503;27;20050;-50
2021/04/15 00:54:04;;;;;;;68.63;33.35;;;;;;;7.40;76.41;99039.88;3553979;27;20049;-50
2021/04/15 00:55:45;;;;;;;105.88;48.17;;;;;;;7.43;77.07;99033.91;3552119;27;20053;-44
2021/04/15 00:57:29;;;;;;;118.60;52.63;;;;;;;7.44;77.87;99033.94;3550918;27;20043;-51
2021/04/15 00:59:11;;;;;;;113.38;52.00;;;;;;;7.45;77.99;99035.66;3554209;27;20051;-45
2021/04/15 01:00:53;;;;;;;104.70;49.58;;;;;;;7.47;78.00;99035.69;3550619;27;20049;-45
2021/04/15 01:02:36;;;;;;;94.53;47.90;;;;;;;7.50;78.10;99035.75;3554328;27;20099;-44
2021/04/15 01:04:18;;;;;;;90.07;42.20;;;;;;;7.50;78.48;99033.16;3551088;27;20074;-49
2021/04/15 01:06:00;;;;;;;75.90;37.05;;;;;;;7.50;78.66;99034.88;3552813;27;20452;-49
2021/04/15 01:07:41;;;;;;;66.22;32.35;;;;;;;7.50;78.80;99033.16;3554277;27;20546;-51
2021/04/15 01:09:23;;;;;;;71.10;35.60;;;;;;;7.49;78.73;99027.97;3550992;27;20499;-49
2021/04/15 01:11:14;;;;;;;58.97;30.10;;;;;;;7.49;78.97;99028.81;3553732;27;20430;-52
2021/04/15 01:13:14;;;;;;;45.25;26.40;;;;;;;7.51;78.93;99032.34;3550930;27;20087;-46
2021/04/15 01:15:08;;;;;;;45.55;25.17;;;;;;;7.53;78.72;99024.59;3540553;27;20423;-44
2021/04/15 01:16:58;;;;;;;39.40;23.67;;;;;;;7.56;78.62;99024.63;3552145;27;20051;-44
2021/04/15 01:18:46;;;;;;;39.47;22.48;;;;;;;7.58;78.77;99023.84;3550568;27;20491;-51
2021/04/15 01:21:04;;;;;;;39.88;22.70;;;;;;;7.60;78.61;99024.72;3554455;27;20051;-45
2021/04/15 01:22:59;;;;;;;43.40;22.95;;;;;;;7.61;79.00;99029.00;3554533;27;20095;-45
2021/04/15 01:24:45;;;;;;;39.97;22.50;;;;;;;7.62;78.74;99022.16;3550693;27;20047;-51
2021/04/15 01:26:59;;;;;;;42.20;23.52;;;;;;;7.64;78.72;99023.91;3554103;27;20078;-44
2021/04/15 01:29:02;;;;;;;40.20;22.85;;;;;;;7.66;78.72;99021.34;3551905;27;20070;-49
2021/04/15 01:30:47;;;;;;;39.05;22.92;;;;;;;7.67;78.74;99015.38;3550364;27;20046;-51
2021/04/15 01:32:33;;;;;;;41.58;23.25;;;;;;;7.70;78.58;99017.97;3553803;27;20050;-44
2021/04/15 01:34:20;;;;;;;45.88;24.67;;;;;;;7.70;78.68;99009.34;3552328;27;20059;-50
2021/04/15 01:36:07;;;;;;;43.60;24.50;;;;;;;7.72;78.88;99007.66;3550423;27;20503;-49
2021/04/15 01:37:52;;;;;;;41.33;23.75;;;;;;;7.74;78.89;99016.28;3552976;27;20047;-50
2021/04/15 01:39:40;;;;;;;42.00;24.77;;;;;;;7.74;78.87;99009.44;3550320;27;20588;-44
2021/04/15 01:41:30;;;;;;;39.03;22.67;;;;;;;7.76;78.49;99014.59;3553597;27;20042;-51
2021/04/15 01:43:18;;;;;;;38.40;22.10;;;;;;;7.79;78.55;99014.66;3552068;27;20419;-51
2021/04/15 01:45:04;;;;;;;38.92;21.83;;;;;;;7.79;78.10;99012.94;3553048;27;20589;-45
2021/04/15 01:46:47;;;;;;;39.05;22.63;;;;;;;7.79;78.07;99005.22;3553064;27;20082;-50
2021/04/15 01:48:32;;;;;;;41.08;23.75;;;;;;;7.81;78.21;99006.09;3552295;27;20532;-50
2021/04/15 01:50:20;;;;;;;38.00;22.52;;;;;;;7.82;78.43;99004.38;3553820;27;20141;-45
2021/04/15 01:52:05;;;;;;;38.55;23.00;;;;;;;7.81;78.28;99010.38;3551231;27;20055;-50
2021/04/15 01:53:50;;;;;;;35.33;22.67;;;;;;;7.81;78.37;99005.19;3551503;27;20047;-51
2021/04/15 01:55:38;;;;;;;36.95;21.88;;;;;;;7.82;78.44;99009.53;3552945;27;20057;-51
2021/04/15 01:57:25;;;;;;;37.78;22.52;;;;;;;7.80;78.14;98999.19;3550158;27;20038;-45
2021/04/15 01:59:10;;;;;;;41.47;23.38;;;;;;;7.81;77.91;99000.94;3553524;27;20083;-44
2021/04/15 02:01:00;;;;;;;40.03;22.98;;;;;;;7.82;77.62;99006.94;3549634;27;20050;-45
2021/04/15 02:02:45;;;;;;;35.15;20.50;;;;;;;7.80;77.59;99006.06;3551435;27;20078;-45
2021/04/15 02:04:32;;;;;;;40.92;23.05;;;;;;;7.77;77.67;99004.28;3554834;27;20396;-45
2021/04/15 02:06:19;;;;;;;35.58;21.30;;;;;;;7.78;77.58;99003.47;3550427;27;20059;-46
2021/04/15 02:08:05;;;;;;;35.88;22.00;;;;;;;7.78;77.45;99002.59;3553416;27;20043;-45
2021/04/15 02:09:49;;;;;;;44.35;24.77;;;;;;;7.77;77.81;99000.84;3552803;27;20530;-44
2021/04/15 02:11:38;;;;;;;;;;;;;;;7.76;77.50;99002.56;3551012;27;21441;-45
2021/04/15 02:13:22;;;;;;;52.90;26.08;;;;;;;7.75;78.07;98997.38;3551249;27;19930;-45
2021/04/15 02:15:08;;;;;;;54.53;28.08;;;;;;;7.74;78.16;98999.09;3549733;27;20042;-45
2021/04/15 02:16:52;;;;;;;50.92;27.33;;;;;;;7.75;77.96;99000.81;3553955;27;20103;-46
2021/04/15 02:18:39;;;;;;;52.70;27.60;;;;;;;7.73;78.05;98997.34;3550006;27;20059;-45
2021/04/15 02:20:24;;;;;;;58.47;28.90;;;;;;;7.73;78.49;98999.94;3551314;27;20400;-45
2021/04/15 02:22:09;;;;;;;53.05;25.80;;;;;;;7.71;78.50;98993.91;3552422;27;20047;-45
2021/04/15 02:23:55;;;;;;;50.13;26.85;;;;;;;7.72;78.42;98997.34;3551023;27;20051;-44
2021/04/15 02:25:42;;;;;;;50.28;27.08;;;;;;;7.71;78.35;98990.47;3553475;27;20057;-44
2021/04/15 02:27:30;;;;;;;53.67;27.42;;;;;;;7.71;78.40;98993.03;3550837;27;20046;-45
2021/04/15 02:29:17;;;;;;;49.08;25.80;;;;;;;7.69;78.26;98993.00;3551313;27;20099;-44
2021/04/15 02:31:06;;;;;;;50.72;27.10;;;;;;;7.70;78.34;99001.63;3551832;27;20050;-49
2021/04/15 02:32:58;;;;;;;51.88;27.85;;;;;;;7.69;78.56;98994.69;3549710;27;20043;-50
2021/04/15 02:34:45;;;;;;;55.78;26.92;;;;;;;7.69;78.45;98995.59;3553429;27;20043;-49
2021/04/15 02:36:33;;;;;;;53.03;27.95;;;;;;;7.69;78.69;98984.38;3548754;27;20054;-49
2021/04/15 02:38:18;;;;;;;53.28;26.08;;;;;;;7.68;78.62;98985.25;3552488;27;20047;-45
2021/04/15 02:40:02;;;;;;;50.38;27.85;;;;;;;7.67;78.24;98981.81;3554079;27;20055;-45
2021/04/15 02:41:46;;;;;;;50.35;26.85;;;;;;;7.66;78.30;98990.38;3549412;27;20557;-44
2021/04/15 02:43:35;;;;;;;56.72;31.83;;;;;;;7.63;78.62;98991.19;3553164;27;20050;-45
2021/04/15 02:45:26;;;;;;;59.78;33.00;;;;;;;7.59;78.32;98993.72;3544648;27;20180;-45
2021/04/15 02:47:10;;;;;;;71.55;32.25;;;;;;;7.61;78.75;98986.88;3540303;27;20200;-44
2021/04/15 02:48:57;;;;;;;75.43;35.42;;;;;;;7.57;79.08;98991.13;3551686;27;20447;-45
2021/04/15 02:50:40;;;;;;;71.13;34.97;;;;;;;7.54;79.05;98987.63;3550722;27;20039;-44
2021/04/15 02:52:25;;;;;;;64.32;31.77;;;;;;;7.52;79.42;98984.16;3552749;27;20095;-45
2021/04/15 02:54:13;;;;;;;55.17;28.92;;;;;;;7.50;78.96;98985.84;3550619;27;20038;-45
2021/04/15 02:56:00;;;;;;;63.70;30.10;;;;;;;7.48;78.34;98982.34;3550896;27;20068;-45
2021/04/15 02:57:45;;;;;;;55.65;28.80;;;;;;;7.48;77.94;98990.09;3551648;27;20046;-49
2021/04/15 02:59:31;;;;;;;57.40;28.88;;;;;;;7.47;78.20;98991.81;3551552;27;20537;-50
2021/04/15 03:01:16;;;;;;;53.38;25.83;;;;;;;7.47;78.29;98996.13;3552846;27;20080;-50
2021/04/15 03:03:01;;;;;;;42.00;24.13;;;;;;;7.45;77.93;98991.78;3550405;27;20038;-49
2021/04/15 03:04:49;;;;;;;40.95;24.65;;;;;;;7.44;77.65;98990.06;3551053;27;20047;-51
2021/04/15 03:06:32;;;;;;;46.33;26.58;;;;;;;7.42;78.36;98989.19;3551271;27;20431;-45
2021/04/15 03:08:18;;;;;;;58.72;32.45;;;;;;;7.41;79.14;98987.44;3549472;27;20047;-45
2021/04/15 03:10:02;;;;;;;64.18;37.50;;;;;;;7.41;79.36;98984.00;3538468;28;20453;-45
2021/04/15 03:11:48;;;;;;;60.10;35.83;;;;;;;7.40;79.87;98984.81;3549044;27;20043;-45
2021/04/15 03:13:34;;;;;;;68.20;36.15;;;;;;;7.39;79.64;98988.28;3550767;27;20046;-45
2021/04/15 03:15:20;;;;;;;65.30;34.33;;;;;;;7.35;79.36;98979.59;3551318;27;20057;-46
2021/04/15 03:17:04;;;;;;;67.10;34.60;;;;;;;7.36;79.99;98989.06;3551043;27;20069;-45
2021/04/15 03:18:49;;;;;;;67.18;34.83;;;;;;;7.35;80.08;98983.88;3552875;27;20061;-45
2021/04/15 03:20:37;;;;;;;56.17;31.27;;;;;;;7.35;80.09;98981.31;3549537;27;20042;-49
2021/04/15 03:22:24;;;;;;;53.47;30.33;;;;;;;7.34;80.20;98984.75;3552141;27;20400;-49
2021/04/15 03:24:13;;;;;;;54.88;30.25;;;;;;;7.32;80.50;98984.72;3550379;27;20073;-49
2021/04/15 03:25:58;;;;;;;58.17;30.92;;;;;;;7.34;80.17;98984.75;3549084;27;20046;-51
2021/04/15 03:27:45;;;;;;;53.05;31.05;;;;;;;7.33;79.92;98991.59;3552464;27;20047;-50
2021/04/15 03:29:29;;;;;;;60.00;31.58;;;;;;;7.33;80.26;98983.84;3549045;27;20042;-49
2021/04/15 03:31:15;;;;;;;58.55;30.90;;;;;;;7.32;80.57;98987.31;3552390;27;20099;-45
2021/04/15 03:33:02;;;;;;;63.17;31.08;;;;;;;7.33;80.59;98981.28;3549914;27;20047;-51
2021/04/15 03:34:51;;;;;;;58.05;30.92;;;;;;;7.36;80.32;98988.22;3549559;27;20074;-50
2021/04/15 03:36:37;;;;;;;52.30;30.05;;;;;;;7.39;80.41;98980.53;3551846;27;20522;-50
2021/04/15 03:38:22;;;;;;;55.42;31.20;;;;;;;7.42;80.61;98986.59;3549140;27;20046;-50
2021/04/15 03:40:06;;;;;;;47.40;27.13;;;;;;;7.45;79.78;98983.19;3552323;27;20055;-50
2021/04/15 03:41:52;;;;;;;47.85;26.80;;;;;;;7.48;79.43;98987.50;3549527;27;20047;-44
2021/04/15 03:43:36;;;;;;;66.82;32.47;;;;;;;7.51;78.75;98985.88;3549131;27;20054;-46
2021/04/15 03:45:22;;;;;;;64.40;30.15;;;;;;;7.53;77.48;98988.44;3551742;27;20542;-45
2021/04/15 03:47:08;;;;;;;69.90;31.67;;;;;;;7.56;77.90;98985.91;3549513;27;20048;-49
2021/04/15 03:48:54;;;;;;;75.63;32.95;;;;;;;7.63;78.40;98992.91;3552653;27;20047;-51
2021/04/15 03:50:45;;;;;;;74.75;34.97;;;;;;;7.66;79.23;98987.78;3548960;27;20499;-49
2021/04/15 03:52:32;;;;;;;75.35;35.35;;;;;;;7.70;79.40;98986.97;3550142;27;20044;-49
2021/04/15 03:54:17;;;;;;;75.25;36.70;;;;;;;7.75;79.81;98995.66;3550929;27;20069;-51
2021/04/15 03:56:02;;;;;;;72.30;35.95;;;;;;;7.79;79.72;98996.56;3548584;27;20541;-50
2021/04/15 03:57:45;;;;;;;67.40;33.15;;;;;;;7.81;79.38;98995.75;3552627;27;20073;-50
2021/04/15 03:59:38;;;;;;;67.50;34.58;;;;;;;7.85;79.72;98999.25;3550896;27;20066;-49
2021/04/15 04:01:23;;;;;;;68.40;33.75;;;;;;;7.87;79.78;99001.88;3549448;27;20054;-51
2021/04/15 04:03:10;;;;;;;72.55;35.15;;;;;;;7.89;79.33;99001.03;3551707;27;20108;-50
2021/04/15 04:04:56;;;;;;;69.88;34.10;;;;;;;7.92;78.95;98997.59;3549175;27;20052;-51
2021/04/15 04:06:42;;;;;;;77.60;36.15;;;;;;;7.95;79.42;98995.97;3552203;27;20422;-50
2021/04/15 04:08:34;;;;;;;74.00;33.75;;;;;;;7.99;79.28;99000.31;3549893;27;20050;-52
2021/04/15 04:10:21;;;;;;;51.53;30.13;;;;;;;8.03;79.37;99001.22;3552319;27;20047;-50
2021/04/15 04:12:06;;;;;;;57.55;30.33;;;;;;;8.06;79.00;99003.84;3555737;27;20051;-51
2021/04/15 04:13:52;;;;;;;51.92;28.52;;;;;;;8.08;78.80;98998.69;3550088;27;20049;-49
2021/04/15 04:15:38;;;;;;;36.10;21.73;;;;;;;8.11;78.92;99001.28;3554854;27;20046;-50
2021/04/15 04:17:28;;;;;;;41.13;24.25;;;;;;;8.13;78.83;99003.06;3551805;27;20054;-45
2021/04/15 04:19:17;;;;;;;48.78;27.75;;;;;;;8.16;78.95;99002.22;3552471;27;20059;-52
2021/04/15 04:21:05;;;;;;;49.90;27.60;;;;;;;8.17;79.18;99003.97;3568210;27;20046;-46
2021/04/15 04:22:51;;;;;;;38.08;22.48;;;;;;;8.19;78.71;98999.69;3554968;27;20517;-45
2021/04/15 04:24:39;;;;;;;48.90;26.55;;;;;;;8.24;78.74;99007.50;3554243;27;20054;-44
2021/04/15 04:26:30;;;;;;;42.67;25.00;;;;;;;8.27;79.06;99005.81;3552652;27;20070;-44
2021/04/15 04:28:16;;;;;;;40.58;24.00;;;;;;;8.30;78.48;99005.84;3552890;27;20419;-50
2021/04/15 04:30:04;;;;;;;43.08;24.83;;;;;;;8.33;78.72;99005.88;3554282;27;20053;-51
2021/04/15 04:31:48;;;;;;;46.55;25.30;;;;;;;8.38;78.61;99000.78;3552027;27;20053;-51
2021/04/15 04:33:37;;;;;;;40.38;24.92;;;;;;;8.42;78.50;99002.53;3553905;27;20076;-50
2021/04/15 04:35:22;;;;;;;43.95;25.40;;;;;;;8.46;78.28;99001.72;3555535;27;20054;-50
2021/04/15 04:37:05;;;;;;;35.67;21.33;;;;;;;8.49;78.35;99003.47;3550915;27;20162;-50
2021/04/15 04:38:47;;;;;;;38.67;22.52;;;;;;;8.52;78.14;98999.22;3553426;27;20050;-52
2021/04/15 04:40:34;;;;;;;39.30;24.25;;;;;;;8.56;77.98;99006.16;3550793;27;20099;-53
2021/04/15 04:42:23;;;;;;;44.85;24.08;;;;;;;8.60;78.09;99004.47;3554725;27;20083;-45
2021/04/15 04:44:13;;;;;;;47.30;23.77;;;;;;;8.62;77.84;99007.06;3550770;27;20047;-45
2021/04/15 04:46:02;;;;;;;50.53;27.92;;;;;;;8.64;77.79;99007.94;3553514;27;20076;-50
2021/04/15 04:47:49;;;;;;;128.82;51.80;;;;;;;8.67;77.92;99010.56;3554020;27;20042;-50
2021/04/15 04:49:34;;;;;;;108.60;45.50;;;;;;;8.70;77.54;99005.44;3551026;27;20047;-51
2021/04/15 04:51:18;;;;;;;76.57;35.30;;;;;;;8.74;77.64;99002.88;3553763;27;20074;-48
2021/04/15 04:53:03;;;;;;;67.15;33.28;;;;;;;8.79;77.83;99008.97;3551222;27;20043;-49
2021/04/15 04:54:45;;;;;;;70.93;34.10;;;;;;;8.84;77.88;99009.03;3553496;27;20050;-45
2021/04/15 04:56:34;;;;;;;62.38;31.02;;;;;;;8.92;77.60;99009.97;3554770;27;20082;-44
2021/04/15 04:58:17;;;;;;;44.47;23.58;;;;;;;8.97;77.38;99005.69;3550718;27;20123;-45
2021/04/15 05:00:04;;;;;;;41.22;23.90;;;;;;;9.04;77.04;99009.19;3554144;27;20563;-44
2021/04/15 05:01:45;;;;;;;30.15;18.52;;;;;;;9.12;76.38;99002.38;3549497;27;20074;-44
2021/04/15 05:03:29;;;;;;;35.88;22.85;;;;;;;9.18;76.37;99003.28;3541185;27;20039;-44
2021/04/15 05:05:20;;;;;;;39.35;21.20;;;;;;;9.23;76.58;99001.63;3554215;27;20085;-50
2021/04/15 05:07:03;;;;;;;35.15;21.83;;;;;;;9.29;76.21;99001.66;3550629;27;20039;-44
2021/04/15 05:08:52;;;;;;;29.23;18.73;;;;;;;9.31;75.89;99003.41;3554160;27;20058;-45
2021/04/15 05:10:34;;;;;;;36.13;21.60;;;;;;;9.36;75.92;99003.44;3552948;27;20046;-49
2021/04/15 05:12:19;;;;;;;52.83;26.27;;;;;;;9.39;75.73;99003.47;3552589;27;20055;-48
2021/04/15 05:14:02;;;;;;;61.58;29.60;;;;;;;9.42;75.26;99005.19;3550408;27;20137;-44
2021/04/15 05:15:44;;;;;;;70.53;33.63;;;;;;;9.45;75.62;99008.72;3552420;27;20042;-50
2021/04/15 05:17:29;;;;;;;83.50;36.00;;;;;;;9.48;75.17;98998.38;3553533;27;20068;-49
2021/04/15 05:19:11;;;;;;;78.72;38.25;;;;;;;9.48;75.59;98997.53;3551040;27;20074;-49
2021/04/15 05:20:56;;;;;;;56.92;27.95;;;;;;;9.51;75.50;99000.13;3553196;27;20110;-51
2021/04/15 05:22:42;;;;;;;50.05;29.33;;;;;;;9.54;75.79;98995.84;3552212;27;20051;-52
2021/04/15 05:24:29;;;;;;;48.80;29.25;;;;;;;9.59;75.27;98997.59;3551179;27;20051;-48
2021/04/15 05:26:14;;;;;;;46.30;29.65;;;;;;;9.63;75.15;98995.03;3553100;27;20388;-49
2021/04/15 05:27:57;;;;;;;44.20;25.77;;;;;;;9.67;75.14;98994.19;3553079;27;20053;-49
2021/04/15 05:29:42;;;;;;;41.30;24.85;;;;;;;9.71;75.02;99002.84;3553795;27;20053;-51
2021/04/15 05:31:28;;;;;;;37.28;22.23;;;;;;;9.73;75.24;99002.03;3552505;27;20057;-50
2021/04/15 05:33:14;;;;;;;37.00;23.00;;;;;;;9.77;75.65;99002.91;3553340;27;20054;-45
2021/04/15 05:34:59;;;;;;;39.25;23.30;;;;;;;9.82;75.20;99011.53;3554047;27;20403;-44
2021/04/15 05:36:41;;;;;;;37.85;23.02;;;;;;;9.86;75.04;99010.72;3550369;27;20090;-45
2021/04/15 05:38:23;;;;;;;36.38;23.48;;;;;;;9.92;75.11;99007.28;3553638;27;20047;-48
2021/04/15 05:40:06;;;;;;;45.13;23.63;;;;;;;9.98;74.91;99004.72;3552634;27;20054;-44
2021/04/15 05:41:57;;;;;;;32.58;22.85;;;;;;;10.00;74.46;99004.72;3553083;27;20411;-44
2021/04/15 05:43:45;;;;;;;37.10;21.65;;;;;;;10.03;74.46;99000.44;3553316;27;20453;-45
2021/04/15 05:45:28;;;;;;;35.72;23.90;;;;;;;10.04;74.01;99006.50;3552300;27;20043;-52
2021/04/15 05:47:14;;;;;;;32.90;21.10;;;;;;;10.05;74.19;98993.56;3539401;27;20424;-49
2021/04/15 05:48:58;;;;;;;39.80;24.23;;;;;;;10.06;74.56;98997.00;3549498;27;20046;-49
2021/04/15 05:50:44;;;;;;;39.05;22.50;;;;;;;10.08;73.94;98995.28;3553330;27;20145;-50
2021/04/15 05:52:29;;;;;;;46.08;24.42;;;;;;;10.10;74.14;98996.16;3550919;27;20058;-49
2021/04/15 05:54:14;;;;;;;34.88;22.77;;;;;;;10.11;74.12;98993.56;3551818;27;20061;-45
2021/04/15 05:56:01;;;;;;;38.50;24.85;;;;;;;10.13;73.78;98995.31;3567047;27;20114;-45
2021/04/15 05:57:46;;;;;;;40.53;24.48;;;;;;;10.14;73.95;98997.03;3555415;27;20042;-44
2021/04/15 05:59:42;;;;;;;38.42;23.42;;;;;;;10.17;73.74;98994.47;3553508;27;20054;-44
2021/04/15 06:01:33;;;;;;;43.50;25.83;;;;;;;10.19;73.73;98998.78;3551287;27;20093;-45
2021/04/15 06:03:24;;;;;;;41.03;25.88;;;;;;;10.25;73.90;98990.19;3550096;27;20043;-45
2021/04/15 06:05:16;;;;;;;40.42;25.08;;;;;;;10.28;73.64;98991.06;3539508;28;20074;-44
2021/04/15 06:07:03;;;;;;;40.38;25.30;;;;;;;10.31;73.58;98992.78;3551116;27;20046;-46
2021/04/15 06:08:48;;;;;;;43.58;26.52;;;;;;;10.36;73.57;98987.63;3551361;27;20047;-44
2021/04/15 06:10:32;;;;;;;43.88;25.05;;;;;;;10.42;73.61;98992.81;3553302;27;20544;-46
2021/04/15 06:12:18;;;;;;;67.50;38.28;;;;;;;10.46;72.76;98992.84;3549684;27;20054;-45
2021/04/15 06:14:04;;;;;;;73.78;38.33;;;;;;;10.49;72.51;98994.56;3551965;27;20165;-45
2021/04/15 06:15:57;;;;;;;57.55;29.42;;;;;;;10.52;72.57;98993.72;3552227;27;20043;-44
2021/04/15 06:17:47;;;;;;;43.65;25.35;;;;;;;10.54;72.18;98997.19;3552586;27;20049;-44
2021/04/15 06:19:35;;;;;;;36.70;22.75;;;;;;;10.54;72.30;98994.59;3552712;27;20422;-45
2021/04/15 06:21:21;;;;;;;42.50;25.33;;;;;;;10.57;72.69;98992.00;3549734;27;20047;-45
2021/04/15 06:23:08;;;;;;;38.88;24.83;;;;;;;10.61;72.88;98994.59;3553326;27;20054;-44
2021/04/15 06:24:55;;;;;;;38.15;23.58;;;;;;;10.66;72.64;98990.28;3549794;27;20042;-46
2021/04/15 06:26:42;;;;;;;34.55;23.42;;;;;;;10.70;72.29;98998.09;3552350;27;20053;-45
2021/04/15 06:28:27;;;;;;;43.05;24.88;;;;;;;10.73;72.08;98996.38;3551694;27;20462;-44
2021/04/15 06:30:18;;;;;;;34.10;22.48;;;;;;;10.79;72.23;98995.50;3549459;27;20565;-46
2021/04/15 06:32:02;;;;;;;39.28;22.90;;;;;;;10.84;72.03;98997.25;3552650;27;20445;-45
2021/04/15 06:33:45;;;;;;;37.55;24.15;;;;;;;10.91;71.92;98992.06;3551956;27;20534;-44
2021/04/15 06:35:28;;;;;;;40.15;25.65;;;;;;;10.87;71.49;98992.06;3551676;27;20046;-45
2021/04/15 06:37:14;;;;;;;37.07;23.60;;;;;;;10.91;71.69;98992.06;3551552;27;20051;-45
2021/04/15 06:39:01;;;;;;;37.10;23.25;;;;;;;10.93;71.65;98991.19;3549480;27;20278;-45
2021/04/15 06:41:15;;;;;;;42.05;24.88;;;;;;;10.98;71.66;98994.66;3553012;27;20450;-46
2021/04/15 06:43:14;;;;;;;25.75;15.85;;;;;;;11.05;71.38;98991.22;3551127;27;20049;-45
2021/04/15 06:45:32;;;;;;;37.13;23.52;;;;;;;11.12;71.15;98996.44;3549408;27;20042;-45
2021/04/15 06:47:49;;;;;;;37.35;24.40;;;;;;;11.19;70.59;98991.22;3548134;27;20491;-45
2021/04/15 06:50:04;;;;;;;30.05;19.10;;;;;;;11.26;70.85;98989.50;3514711;28;20468;-46
2021/04/15 06:51:52;;;;;;;30.75;19.88;;;;;;;11.29;70.57;98989.50;3550118;27;20107;-45
2021/04/15 06:53:42;;;;;;;49.10;26.58;;;;;;;11.31;70.35;98990.41;3552042;27;20045;-45
2021/04/15 06:55:36;;;;;;;40.00;25.27;;;;;;;11.34;69.97;98981.72;3538835;28;20059;-46
2021/04/15 06:57:49;;;;;;;39.70;25.33;;;;;;;11.40;70.26;98987.78;3547803;27;20460;-52
2021/04/15 06:59:42;;;;;;;33.85;21.42;;;;;;;11.44;69.43;98986.91;3549370;27;20567;-49
2021/04/15 07:01:37;;;;;;;42.43;27.57;;;;;;;11.46;69.73;98989.50;3552829;27;20100;-51
2021/04/15 07:03:46;;;;;;;42.45;25.38;;;;;;;11.49;69.47;98988.66;3549557;27;20666;-48
2021/04/15 07:05:31;;;;;;;48.05;27.73;;;;;;;11.54;69.13;98987.78;3548574;27;20050;-48
2021/04/15 07:07:20;;;;;;;42.70;26.85;;;;;;;11.64;69.43;98993.81;3552734;27;20046;-49
2021/04/15 07:09:24;;;;;;;43.40;26.92;;;;;;;11.72;68.93;98986.88;3549522;27;20050;-51
2021/04/15 07:11:15;;;;;;;42.60;24.48;;;;;;;11.81;68.71;98984.25;3551683;27;20112;-50
2021/04/15 07:13:27;;;;;;;43.97;26.98;;;;;;;11.92;68.38;98992.00;3551856;27;20099;-51
2021/04/15 07:15:29;;;;;;;47.70;27.35;;;;;;;12.00;68.22;98990.28;3547900;27;20530;-51
2021/04/15 07:17:34;;;;;;;35.83;23.05;;;;;;;12.12;67.90;98994.56;3549469;27;20047;-49
2021/04/15 07:19:45;;;;;;;47.65;24.30;;;;;;;12.20;67.12;98998.00;3538510;28;20062;-50
2021/04/15 07:21:58;;;;;;;44.88;27.23;;;;;;;12.28;66.86;98995.38;3551314;27;20054;-50
2021/04/15 07:24:23;;;;;;;48.47;26.92;;;;;;;12.37;66.03;98995.34;3550307;27;20061;-48
2021/04/15 07:26:40;;;;;;;44.05;25.98;;;;;;;12.38;65.44;98991.88;3549549;27;20054;-52
2021/04/15 07:28:45;;;;;;;37.78;24.10;;;;;;;12.44;65.48;98990.97;3531472;28;20062;-47
2021/04/15 07:30:38;;;;;;;40.72;24.17;;;;;;;12.51;64.63;98992.66;3549836;27;20428;-46
2021/04/15 07:32:40;;;;;;;38.70;24.00;;;;;;;12.58;65.21;98991.75;3551185;27;20064;-44
2021/04/15 07:34:39;;;;;;;35.65;23.90;;;;;;;12.66;64.51;98991.69;3552693;27;20074;-44
2021/04/15 07:36:49;;;;;;;38.33;22.90;;;;;;;12.76;63.58;98990.78;3550792;27;20049;-50
2021/04/15 07:38:55;;;;;;;37.83;22.83;;;;;;;12.89;63.80;98994.16;3551327;27;20043;-52
2021/04/15 07:41:04;;;;;;;33.15;21.35;;;;;;;12.97;64.46;99003.72;3551175;27;20100;-53
2021/04/15 07:42:56;;;;;;;36.00;21.85;;;;;;;13.06;63.33;98999.31;3552215;27;20054;-46
2021/04/15 07:44:40;;;;;;;35.28;21.67;;;;;;;13.27;62.98;99007.84;3550452;27;20047;-46
2021/04/15 07:46:32;;;;;;;37.83;22.17;;;;;;;13.54;61.69;98992.84;3554508;27;20050;-48
2021/04/15 07:48:36;;;;;;;;;;;;;;;13.80;61.50;98997.81;3555434;27;20050;-47
2021/04/15 07:51:00;;;;;;;27.85;18.15;;;;;;;14.09;60.21;98987.03;3547075;27;19927;-45
2021/04/15 07:53:28;;;;;;;29.90;20.17;;;;;;;14.33;59.39;98987.66;3495966;28;20508;-47
2021/04/15 07:55:31;;;;;;;28.17;16.70;;;;;;;14.34;57.18;98987.66;3455627;28;20057;-44
2021/04/15 07:57:34;;;;;;;27.50;18.13;;;;;;;14.45;56.64;98990.13;3491108;28;20059;-45
2021/04/15 07:59:37;;;;;;;29.63;17.27;;;;;;;14.63;56.94;98992.47;3546757;27;20591;-45
2021/04/15 08:01:42;;;;;;;27.65;19.13;;;;;;;14.74;57.32;98989.72;3554487;27;20043;-49
2021/04/15 08:03:57;;;;;;;31.55;19.73;;;;;;;14.73;56.53;98990.63;3554198;27;20091;-51
2021/04/15 08:05:52;;;;;;;27.17;16.92;;;;;;;14.94;55.22;98984.22;3517127;27;20053;-49
2021/04/15 08:07:56;;;;;;;28.42;16.50;;;;;;;15.00;55.05;98989.31;3552091;27;20332;-48
2021/04/15 08:09:57;;;;;;;19.83;13.30;;;;;;;15.10;54.93;98987.44;3537417;28;20051;-52
2021/04/15 08:11:52;;;;;;;28.60;16.95;;;;;;;15.12;53.61;98987.44;3550731;27;20130;-51
2021/04/15 08:14:05;;;;;;;28.13;17.25;;;;;;;15.01;53.69;98985.84;3549961;27;20054;-51
2021/04/15 08:16:05;;;;;;;26.48;15.45;;;;;;;15.01;53.70;98982.34;3555228;27;20047;-48
2021/04/15 08:18:20;;;;;;;25.02;15.75;;;;;;;15.00;53.18;98983.25;3566846;27;20054;-49
2021/04/15 08:20:40;;;;;;;23.48;15.43;;;;;;;15.03;52.46;98983.22;3551524;27;20093;-49
2021/04/15 08:22:35;;;;;;;25.05;14.63;;;;;;;15.06;52.36;98980.53;3553281;27;20778;-44
2021/04/15 08:24:46;;;;;;;20.90;13.35;;;;;;;15.08;53.56;98983.13;3555022;27;20070;-49
2021/04/15 08:26:56;;;;;;;19.33;13.50;;;;;;;15.09;52.82;98977.88;3553160;27;20050;-48
2021/04/15 08:29:05;;;;;;;23.77;13.35;;;;;;;15.17;52.75;98981.25;3534368;27;20050;-49